M I D A S
Marine Information and Data Acquisition System
Tripno 1713 of the Zeeleeuw from 2009-06-22 07:20:52 to 2009-06-22 15:14:20
Back to CruiseResearch ActivitiesStationsMapUnderway DataData graphs

EquipmentUnitsComments
TimeDGPSUTC
LatitudeDGPSDM.mWGS84
LongitudeDGPSDM.mWGS84
SpeedMeteo Stationm/sRelative wind speed
DirectionMeteo StationdegRelative wind direction
TemperatureMeteo Stationdeg CelciusAir temperature
PressureMeteo StationPaAtmospheric pressure
HumidityMeteo Station%Relative humidity
Missing or incorrect values are displayed as -999
Metereological data collected by the RV Zeeleeuw from 2009-06-22 06:43:57 to 2009-06-22 15:30:18
Time Latitude Longitude Speed Direction Temperature Pressure Humidity
2009-06-22 06:45 51°13.663 2°55.96 2.3 328 13.7 102700 67
2009-06-22 06:46 51°13.662 2°55.96 2.6 24 13.7 102700 67
2009-06-22 06:47 51°13.662 2°55.96 3.3 323 13.7 102700 67
2009-06-22 06:48 51°13.662 2°55.96 2.3 318 13.7 102700 67
2009-06-22 06:49 51°13.662 2°55.959 2.4 327 13.7 102700 67
2009-06-22 06:50 51°13.663 2°55.96 2.4 319 13.7 102700 67
2009-06-22 06:51 51°13.663 2°55.96 1.7 20 13.7 102700 67
2009-06-22 06:52 51°13.663 2°55.96 -999 -999 -999 -999 -999
2009-06-22 06:53 51°13.663 2°55.96 1.3 326 13.8 102710 66
2009-06-22 06:54 51°13.663 2°55.961 2 317 13.8 102710 67
2009-06-22 06:55 51°13.662 2°55.959 1.4 322 13.8 102700 67
2009-06-22 06:56 51°13.662 2°55.96 2.2 327 13.9 102700 67
2009-06-22 06:57 51°13.662 2°55.96 1.5 327 13.9 102700 66
2009-06-22 06:58 51°13.663 2°55.961 1.6 328 13.9 102710 66
2009-06-22 06:59 51°13.663 2°55.961 1.3 328 13.9 102710 66
2009-06-22 07:00 51°13.663 2°55.961 1.8 328 14 102710 66
2009-06-22 07:01 51°13.662 2°55.96 0.6 321 14 102710 66
2009-06-22 07:02 51°13.664 2°55.96 1.3 29 14 102710 66
2009-06-22 07:03 51°13.663 2°55.96 0.9 319 14.1 102710 66
2009-06-22 07:04 51°13.663 2°55.96 1.6 329 14.2 102710 65
2009-06-22 07:05 51°13.663 2°55.96 1.4 319 14.3 102710 65
2009-06-22 07:06 51°13.663 2°55.96 0.9 26 14.4 102710 65
2009-06-22 07:07 51°13.662 2°55.96 1 320 14.5 102710 65
2009-06-22 07:08 51°13.662 2°55.959 1.7 332 14.6 102710 65
2009-06-22 07:09 51°13.678 2°55.905 0.6 32 14.6 102720 64
2009-06-22 07:10 51°13.694 2°55.829 0.4 29 14.7 102720 64
2009-06-22 07:11 51°13.692 2°55.755 1.5 21 14.7 102720 63
2009-06-22 07:11 51°13.703 2°55.754 2.1 359 14.6 102720 63
2009-06-22 07:13 51°13.704 2°55.747 1.6 42 14.6 102720 64
2009-06-22 07:13 51°13.753 2°55.697 2.1 341 14.6 102720 64
2009-06-22 07:14 51°13.833 2°55.63 1.9 349 14.6 102720 64
2009-06-22 07:15 51°13.896 2°55.635 1.9 352 14.5 102720 64
2009-06-22 07:16 51°13.934 2°55.638 1.6 28 14.4 102720 63
2009-06-22 07:17 51°13.945 2°55.632 1.5 41 14.3 102720 63
2009-06-22 07:18 51°13.959 2°55.614 1.2 3 14.3 102720 64
2009-06-22 07:19 51°14.025 2°55.541 2.6 348 14.3 102720 64
2009-06-22 07:20 51°14.136 2°55.419 3.3 342 14.2 102720 64
2009-06-22 07:21 51°14.251 2°55.266 3.6 342 14.2 102720 64
2009-06-22 07:22 51°14.351 2°55.075 3.3 339 14.2 102720 64
2009-06-22 07:23 51°14.405 2°54.817 3.6 329 14.1 102720 63
2009-06-22 07:24 51°14.372 2°54.501 3.4 328 14.2 102720 62
2009-06-22 07:25 51°14.31 2°54.184 5.8 332 14.3 102720 63
2009-06-22 07:26 51°14.22 2°53.877 4.7 322 14.3 102720 63
2009-06-22 07:27 51°14.127 2°53.571 5.6 325 14.4 102720 63
2009-06-22 07:28 51°14.037 2°53.268 5.3 326 14.4 102720 62
2009-06-22 07:29 51°13.938 2°52.967 5.6 325 14.4 102720 63
2009-06-22 07:30 51°13.829 2°52.674 4.8 321 14.5 102720 62
2009-06-22 07:31 51°13.716 2°52.385 4.9 324 14.6 102720 62
2009-06-22 07:32 51°13.614 2°52.085 4.3 331 14.6 102730 62
2009-06-22 07:33 51°13.511 2°51.785 5.1 328 14.6 102720 63
2009-06-22 07:34 51°13.422 2°51.513 3.3 21 14.6 102720 63
2009-06-22 07:35 51°13.386 2°51.386 0.9 249 14.7 102730 63
2009-06-22 07:36 51°13.373 2°51.343 1.7 28 14.9 102730 63
2009-06-22 07:37 51°13.361 2°51.31 2.2 28 14.9 102730 61
2009-06-22 07:38 51°13.349 2°51.275 1.1 28 15 102730 62
2009-06-22 07:39 51°13.318 2°51.174 2.2 21 15.2 102730 62
2009-06-22 07:40 51°13.234 2°50.94 4.5 324 15.3 102730 61
2009-06-22 07:41 51°13.13 2°50.65 6.1 330 15.2 102730 62
2009-06-22 07:42 51°13.025 2°50.358 5.5 327 15 102730 62
2009-06-22 07:43 51°12.916 2°50.067 6.6 326 15 102730 63
2009-06-22 07:44 51°12.81 2°49.773 5.2 324 14.9 102730 63
2009-06-22 07:45 51°12.703 2°49.472 5.3 329 14.8 102730 63
2009-06-22 07:46 51°12.602 2°49.178 4.5 326 14.7 102730 63
2009-06-22 07:47 51°12.501 2°48.878 5.3 323 14.7 102730 64
2009-06-22 07:48 51°12.397 2°48.579 4.9 323 14.8 102740 63
2009-06-22 07:49 51°12.294 2°48.284 5.3 321 14.8 102730 63
2009-06-22 07:50 51°12.188 2°47.992 4.5 323 14.8 102730 64
2009-06-22 07:51 51°12.084 2°47.7 4.1 323 14.8 102730 63
2009-06-22 07:52 51°11.982 2°47.405 4.1 328 14.8 102730 63
2009-06-22 07:53 51°11.884 2°47.105 3.4 326 14.8 102730 63
2009-06-22 07:54 51°11.789 2°46.798 5 333 14.9 102740 63
2009-06-22 07:55 51°11.716 2°46.49 3.5 328 14.9 102740 64
2009-06-22 07:56 51°11.647 2°46.165 3.9 324 14.8 102740 63
2009-06-22 07:57 51°11.582 2°45.853 4.7 325 14.9 102730 63
2009-06-22 07:58 51°11.512 2°45.524 3.8 332 14.9 102740 63
2009-06-22 07:59 51°11.443 2°45.201 3.7 328 14.9 102740 63
2009-06-22 08:00 51°11.371 2°44.879 4.4 330 15 102740 64
2009-06-22 08:01 51°11.304 2°44.552 4.3 332 14.9 102740 64
2009-06-22 08:02 51°11.234 2°44.225 3.4 327 14.9 102740 63
2009-06-22 08:03 51°11.172 2°43.897 2.9 337 15 102740 64
2009-06-22 08:04 51°11.143 2°43.56 5.4 339 15 102740 64
2009-06-22 08:05 51°11.128 2°43.222 3.5 356 15 102730 64
2009-06-22 08:06 51°11.113 2°42.912 5 352 14.7 102720 64
2009-06-22 08:07 51°11.096 2°42.604 4.4 354 14.6 102730 64
2009-06-22 08:08 51°11.077 2°42.336 3.6 7 14.6 102730 65
2009-06-22 08:09 51°11.058 2°42.174 2.5 26 14.5 102730 64
2009-06-22 08:10 51°11.036 2°42.08 2.5 26 14.5 102730 63
2009-06-22 08:11 51°11.023 2°42.037 1.5 21 14.7 102740 65
2009-06-22 08:12 51°11.01 2°41.997 2.6 26 15.1 102740 63
2009-06-22 08:13 51°10.996 2°41.957 2.4 23 15.4 102740 64
2009-06-22 08:14 51°10.982 2°41.916 4 29 15.6 102740 61
2009-06-22 08:15 51°10.967 2°41.873 3.9 23 15.3 102740 62
2009-06-22 08:16 51°10.952 2°41.831 3.4 25 15.1 102730 63
2009-06-22 08:17 51°10.929 2°41.752 1.6 25 15 102740 64
2009-06-22 08:18 51°10.877 2°41.565 3.6 353 15 102740 64
2009-06-22 08:19 51°10.808 2°41.262 3.8 349 14.9 102740 64
2009-06-22 08:20 51°10.748 2°40.94 4.6 349 14.7 102740 64
2009-06-22 08:21 51°10.686 2°40.606 5.5 355 14.6 102740 65
2009-06-22 08:22 51°10.625 2°40.283 4.7 352 14.5 102750 64
2009-06-22 08:23 51°10.569 2°39.95 5.5 358 14.5 102750 65
2009-06-22 08:24 51°10.512 2°39.617 4.8 2 14.5 102750 64
2009-06-22 08:25 51°10.452 2°39.289 4.9 358 14.5 102750 64
2009-06-22 08:26 51°10.387 2°38.96 3.5 357 14.5 102750 64
2009-06-22 08:27 51°10.323 2°38.641 4.7 358 14.5 102740 65
2009-06-22 08:28 51°10.258 2°38.308 4.5 358 14.5 102750 64
2009-06-22 08:29 51°10.194 2°37.987 5.7 352 14.5 102750 65
2009-06-22 08:30 51°10.136 2°37.654 6.7 356 14.5 102750 65
2009-06-22 08:31 51°10.1 2°37.324 5.3 354 14.5 102750 64
2009-06-22 08:32 51°10.097 2°36.991 6.2 347 14.5 102740 66
2009-06-22 08:33 51°10.161 2°36.683 7.9 349 14.5 102740 66
2009-06-22 08:34 51°10.254 2°36.417 8.7 344 14.4 102740 64
2009-06-22 08:35 51°10.399 2°36.232 8.7 343 14.5 102740 66
2009-06-22 08:36 51°10.566 2°36.228 10.8 336 14.6 102750 65
2009-06-22 08:37 51°10.727 2°36.346 10.8 331 14.6 102750 63
2009-06-22 08:38 51°10.884 2°36.453 9.4 331 14.7 102740 64
2009-06-22 08:39 51°11.047 2°36.556 11.5 330 14.7 102740 64
2009-06-22 08:40 51°11.216 2°36.64 10.2 330 14.7 102750 63
2009-06-22 08:41 51°11.385 2°36.718 9.7 333 14.7 102740 64
2009-06-22 08:42 51°11.555 2°36.806 9.7 334 14.8 102750 63
2009-06-22 08:43 51°11.721 2°36.893 8.4 335 14.8 102750 64
2009-06-22 08:44 51°11.892 2°36.98 9.6 333 14.8 102750 64
2009-06-22 08:45 51°12.058 2°37.064 8.3 333 14.8 102750 64
2009-06-22 08:46 51°12.23 2°37.158 10.4 332 14.8 102750 64
2009-06-22 08:47 51°12.396 2°37.242 10.6 335 14.8 102750 64
2009-06-22 08:48 51°12.541 2°37.313 9.2 333 14.8 102750 63
2009-06-22 08:49 51°12.675 2°37.381 8.4 334 14.9 102750 64
2009-06-22 08:50 51°12.802 2°37.431 8.1 339 14.9 102750 64
2009-06-22 08:51 51°12.927 2°37.426 8.4 339 14.8 102760 62
2009-06-22 08:52 51°13.057 2°37.418 8.5 342 14.8 102750 63
2009-06-22 08:53 51°13.179 2°37.414 7.8 338 14.9 102760 63
2009-06-22 08:54 51°13.285 2°37.409 8.1 342 14.9 102750 64
2009-06-22 08:55 51°13.381 2°37.385 6.6 344 14.8 102750 62
2009-06-22 08:56 51°13.482 2°37.347 6.7 343 14.6 102760 63
2009-06-22 08:57 51°13.64 2°37.295 10.3 338 14.6 102760 63
2009-06-22 08:58 51°13.826 2°37.254 9.5 338 14.7 102760 64
2009-06-22 08:59 51°14.006 2°37.217 9.4 337 14.7 102760 64
2009-06-22 09:00 51°14.19 2°37.172 9.6 336 14.8 102760 64
2009-06-22 09:01 51°14.367 2°37.136 10.4 339 14.8 102760 63
2009-06-22 09:02 51°14.551 2°37.107 9.5 339 14.8 102760 64
2009-06-22 09:03 51°14.73 2°37.078 9.5 340 14.8 102760 63
2009-06-22 09:04 51°14.917 2°37.046 10.1 337 14.8 102760 64
2009-06-22 09:05 51°15.102 2°37.013 8.2 336 14.8 102760 63
2009-06-22 09:06 51°15.288 2°36.981 8.4 340 14.8 102770 64
2009-06-22 09:07 51°15.474 2°36.942 10 338 14.8 102760 63
2009-06-22 09:08 51°15.657 2°36.911 9.1 340 14.8 102760 63
2009-06-22 09:09 51°15.849 2°36.877 8.9 341 14.8 102760 64
2009-06-22 09:10 51°16.034 2°36.84 9.5 342 14.7 102760 63
2009-06-22 09:11 51°16.189 2°36.806 7.8 342 14.7 102760 63
2009-06-22 09:12 51°16.263 2°36.796 6.4 339 14.7 102760 64
2009-06-22 09:13 51°16.329 2°36.785 5.9 342 14.7 102760 65
2009-06-22 09:14 51°16.392 2°36.806 6.8 336 14.7 102770 66
2009-06-22 09:15 51°16.468 2°36.804 6.8 337 14.7 102770 64
2009-06-22 09:16 51°16.544 2°36.815 5.9 336 14.7 102760 64
2009-06-22 09:17 51°16.568 2°36.82 3.4 338 14.8 102770 63
2009-06-22 09:18 51°16.57 2°36.813 3.7 335 14.8 102770 63
2009-06-22 09:19 51°16.566 2°36.804 3.3 329 14.8 102770 63
2009-06-22 09:20 51°16.559 2°36.795 3.7 325 15 102770 63
2009-06-22 09:21 51°16.551 2°36.786 5.3 327 15.1 102770 63
2009-06-22 09:22 51°16.541 2°36.775 4.4 321 15.1 102770 62
2009-06-22 09:23 51°16.533 2°36.769 4.8 23 15.1 102770 62
2009-06-22 09:24 51°16.556 2°36.81 5.5 343 15 102770 62
2009-06-22 09:25 51°16.636 2°36.745 6.6 350 14.9 102760 63
2009-06-22 09:26 51°16.781 2°36.626 8 346 14.7 102770 64
2009-06-22 09:27 51°16.937 2°36.452 7.4 345 14.5 102760 64
2009-06-22 09:28 51°17.08 2°36.245 7.6 344 14.5 102770 65
2009-06-22 09:29 51°17.215 2°36.033 7.3 348 14.4 102760 64
2009-06-22 09:30 51°17.341 2°35.81 9.1 350 14.4 102760 65
2009-06-22 09:31 51°17.446 2°35.573 7.6 355 14.3 102770 65
2009-06-22 09:32 51°17.548 2°35.334 7 350 14.3 102770 64
2009-06-22 09:33 51°17.654 2°35.102 7.4 352 14.3 102770 64
2009-06-22 09:34 51°17.765 2°34.858 7.2 351 14.3 102770 64
2009-06-22 09:35 51°17.877 2°34.622 8 351 14.2 102770 64
2009-06-22 09:36 51°17.993 2°34.373 8 350 14.2 102770 64
2009-06-22 09:37 51°18.108 2°34.128 7.1 347 14.2 102770 65
2009-06-22 09:38 51°18.22 2°33.883 6.6 353 14.2 102770 64
2009-06-22 09:39 51°18.334 2°33.643 7 350 14.2 102760 64
2009-06-22 09:40 51°18.445 2°33.403 7.7 350 14.2 102770 64
2009-06-22 09:41 51°18.558 2°33.165 5.5 349 14.2 102770 64
2009-06-22 09:42 51°18.668 2°32.925 7.1 347 14.2 102780 64
2009-06-22 09:43 51°18.782 2°32.674 5.4 348 14.2 102780 63
2009-06-22 09:44 51°18.894 2°32.43 6.5 347 14.3 102770 66
2009-06-22 09:45 51°19.011 2°32.18 6.3 344 14.2 102770 63
2009-06-22 09:46 51°19.12 2°31.933 6.5 350 14.3 102780 64
2009-06-22 09:47 51°19.234 2°31.683 7.1 348 14.2 102780 65
2009-06-22 09:48 51°19.347 2°31.436 6.6 347 14.2 102770 64
2009-06-22 09:49 51°19.463 2°31.188 7.5 350 14.2 102780 63
2009-06-22 09:50 51°19.579 2°30.94 5.9 343 14.2 102780 64
2009-06-22 09:51 51°19.697 2°30.705 6.7 351 14.2 102780 65
2009-06-22 09:52 51°19.79 2°30.536 5.4 1 14.2 102780 65
2009-06-22 09:53 51°19.874 2°30.39 5.9 1 14.2 102790 64
2009-06-22 09:54 51°19.943 2°30.276 4.9 7 14.2 102780 64
2009-06-22 09:55 51°19.972 2°30.198 2.8 29 14.2 102800 64
2009-06-22 09:56 51°19.981 2°30.134 3.2 26 14.3 102800 64
2009-06-22 09:57 51°19.992 2°30.085 2.7 39 14.4 102800 64
2009-06-22 09:58 51°19.996 2°30.096 4.2 30 14.5 102790 63
2009-06-22 09:59 51°19.997 2°30.12 3.7 27 14.5 102790 63
2009-06-22 10:00 51°19.997 2°30.148 3.8 20 14.5 102790 63
2009-06-22 10:01 51°19.997 2°30.182 4.4 27 14.6 102790 64
2009-06-22 10:02 51°19.996 2°30.215 4.5 16 14.7 102790 65
2009-06-22 10:03 51°19.996 2°30.245 4.2 18 14.6 102790 63
2009-06-22 10:04 51°20.021 2°30.264 5.5 350 14.5 102790 63
2009-06-22 10:05 51°20.064 2°30.332 6 339 14.5 102800 64
2009-06-22 10:06 51°20.143 2°30.507 8.3 331 14.5 102790 63
2009-06-22 10:07 51°20.217 2°30.802 10.5 327 14.6 102800 63
2009-06-22 10:08 51°20.248 2°31.135 9 322 14.7 102790 63
2009-06-22 10:09 51°20.28 2°31.469 8.9 323 14.8 102790 63
2009-06-22 10:10 51°20.313 2°31.798 9.4 323 14.9 102790 64
2009-06-22 10:11 51°20.35 2°32.13 9.6 324 15 102800 63
2009-06-22 10:12 51°20.363 2°32.464 10.1 321 15 102790 63
2009-06-22 10:13 51°20.365 2°32.799 8.5 323 15.1 102800 63
2009-06-22 10:14 51°20.37 2°33.134 9.2 318 15.1 102790 62
2009-06-22 10:15 51°20.378 2°33.47 9.6 323 15.1 102790 62
2009-06-22 10:16 51°20.388 2°33.808 9.9 323 15 102790 61
2009-06-22 10:17 51°20.397 2°34.145 9 321 15.1 102790 63
2009-06-22 10:18 51°20.409 2°34.476 9.5 323 15.1 102790 62
2009-06-22 10:19 51°20.419 2°34.808 8.9 322 15.1 102790 61
2009-06-22 10:20 51°20.433 2°35.144 8.8 324 15.1 102780 62
2009-06-22 10:21 51°20.444 2°35.484 9.6 322 15.2 102790 61
2009-06-22 10:22 51°20.454 2°35.826 9.8 322 15.2 102790 62
2009-06-22 10:23 51°20.482 2°36.165 9.2 323 15.2 102790 62
2009-06-22 10:24 51°20.521 2°36.5 10.9 325 15.2 102790 62
2009-06-22 10:25 51°20.555 2°36.832 8.4 324 15.1 102790 62
2009-06-22 10:26 51°20.578 2°37.166 8.1 323 15.2 102790 63
2009-06-22 10:27 51°20.594 2°37.499 8.2 321 15.2 102780 63
2009-06-22 10:28 51°20.608 2°37.832 9.5 322 15.2 102790 62
2009-06-22 10:29 51°20.646 2°38.159 8.7 320 15.1 102790 61
2009-06-22 10:30 51°20.698 2°38.482 10.4 326 15.1 102790 62
2009-06-22 10:31 51°20.753 2°38.804 9.5 325 15.1 102790 62
2009-06-22 10:32 51°20.807 2°39.126 8.6 327 15.1 102790 62
2009-06-22 10:33 51°20.86 2°39.449 10.5 327 15 102790 62
2009-06-22 10:34 51°20.925 2°39.768 8.6 323 15.1 102790 62
2009-06-22 10:35 51°21.014 2°40.073 10.5 329 15.1 102790 61
2009-06-22 10:36 51°21.118 2°40.368 9 328 15 102790 61
2009-06-22 10:37 51°21.222 2°40.667 9.5 324 15 102790 62
2009-06-22 10:38 51°21.335 2°40.956 8.6 324 15 102790 61
2009-06-22 10:39 51°21.449 2°41.245 9.9 324 15 102780 62
2009-06-22 10:40 51°21.576 2°41.521 9.2 327 15 102790 63
2009-06-22 10:41 51°21.704 2°41.798 9.9 325 15 102790 63
2009-06-22 10:42 51°21.829 2°42.08 11.2 327 15 102790 63
2009-06-22 10:43 51°21.955 2°42.363 10.2 328 15 102790 61
2009-06-22 10:44 51°22.08 2°42.647 10.6 327 14.9 102790 62
2009-06-22 10:45 51°22.231 2°42.897 9.4 331 15 102790 62
2009-06-22 10:46 51°22.394 2°43.126 10.3 332 14.9 102790 61
2009-06-22 10:47 51°22.561 2°43.353 10 334 14.8 102790 61
2009-06-22 10:48 51°22.727 2°43.575 9.2 332 14.8 102800 62
2009-06-22 10:49 51°22.89 2°43.798 10 334 14.9 102790 62
2009-06-22 10:50 51°23.055 2°44.017 10.6 334 14.8 102800 61
2009-06-22 10:51 51°23.218 2°44.242 10.6 331 14.8 102800 62
2009-06-22 10:52 51°23.383 2°44.461 8.8 332 14.8 102800 60
2009-06-22 10:53 51°23.55 2°44.682 8.9 330 14.8 102800 61
2009-06-22 10:54 51°23.718 2°44.899 10.6 334 14.8 102800 61
2009-06-22 10:55 51°23.887 2°45.116 9.5 332 14.8 102800 60
2009-06-22 10:56 51°24.053 2°45.339 11.7 330 14.8 102790 60
2009-06-22 10:57 51°24.217 2°45.564 11.1 334 14.8 102800 61
2009-06-22 10:58 51°24.385 2°45.781 10.9 334 14.8 102800 61
2009-06-22 10:59 51°24.551 2°46 8.9 333 14.8 102800 60
2009-06-22 11:00 51°24.717 2°46.224 10.7 332 14.9 102800 61
2009-06-22 11:01 51°24.879 2°46.458 9.3 336 14.9 102800 62
2009-06-22 11:02 51°25.039 2°46.689 9.7 334 14.8 102800 62
2009-06-22 11:03 51°25.2 2°46.918 9.8 338 14.8 102790 61
2009-06-22 11:04 51°25.362 2°47.14 9.7 331 14.8 102790 61
2009-06-22 11:05 51°25.521 2°47.366 11.1 333 14.8 102800 61
2009-06-22 11:06 51°25.68 2°47.592 9.5 330 14.7 102790 61
2009-06-22 11:07 51°25.851 2°47.797 9.7 331 14.7 102800 61
2009-06-22 11:08 51°25.98 2°48.034 8.3 325 14.8 102790 62
2009-06-22 11:09 51°26.007 2°48.248 6.9 29 14.8 102790 61
2009-06-22 11:10 51°25.99 2°48.401 5 26 14.8 102790 61
2009-06-22 11:11 51°25.994 2°48.518 4.9 318 14.9 102800 62
2009-06-22 11:12 51°26.004 2°48.569 5.3 21 15 102800 63
2009-06-22 11:13 51°26.013 2°48.605 3.9 318 15 102800 60
2009-06-22 11:14 51°26.022 2°48.638 3.3 27 15 102800 62
2009-06-22 11:15 51°26.029 2°48.668 4.2 18 15 102800 61
2009-06-22 11:16 51°26.036 2°48.696 4.6 252 15.1 102800 62
2009-06-22 11:17 51°26.043 2°48.723 4.1 252 15.3 102800 62
2009-06-22 11:18 51°26.049 2°48.748 5.3 256 15.4 102800 62
2009-06-22 11:19 51°26.051 2°48.786 5 27 15.5 102800 62
2009-06-22 11:20 51°26.052 2°48.875 6.7 316 15.5 102800 60
2009-06-22 11:21 51°26.068 2°49.032 7.8 322 15.5 102790 59
2009-06-22 11:22 51°26.09 2°49.28 8.4 325 15.4 102790 60
2009-06-22 11:23 51°26.113 2°49.572 9 324 15.4 102790 60
2009-06-22 11:24 51°26.137 2°49.874 9.4 320 15.3 102790 60
2009-06-22 11:25 51°26.173 2°50.205 8.4 323 15.2 102780 61
2009-06-22 11:26 51°26.215 2°50.542 9.4 322 15.2 102790 61
2009-06-22 11:27 51°26.258 2°50.88 11.8 321 15.2 102780 62
2009-06-22 11:28 51°26.306 2°51.212 10 320 15.2 102780 61
2009-06-22 11:29 51°26.352 2°51.542 10.1 323 15.2 102780 61
2009-06-22 11:30 51°26.395 2°51.87 10.4 324 15.1 102780 60
2009-06-22 11:31 51°26.44 2°52.199 9.3 324 15.2 102780 60
2009-06-22 11:32 51°26.484 2°52.527 10.4 325 15.2 102780 61
2009-06-22 11:33 51°26.526 2°52.859 9.7 326 15.1 102780 60
2009-06-22 11:34 51°26.569 2°53.191 10.7 321 15.2 102770 62
2009-06-22 11:35 51°26.61 2°53.519 10.6 320 15.2 102770 61
2009-06-22 11:36 51°26.653 2°53.841 10.2 318 15.2 102770 61
2009-06-22 11:37 51°26.695 2°54.164 8.8 322 15.1 102770 60
2009-06-22 11:38 51°26.742 2°54.492 12.3 320 15.2 102770 62
2009-06-22 11:39 51°26.783 2°54.828 9.9 319 15.1 102780 60
2009-06-22 11:40 51°26.828 2°55.162 9.5 323 15.2 102780 62
2009-06-22 11:41 51°26.854 2°55.494 8.6 322 15.2 102780 60
2009-06-22 11:42 51°26.872 2°55.823 8.8 317 15.2 102780 61
2009-06-22 11:43 51°26.892 2°56.15 9.2 322 15.2 102770 61
2009-06-22 11:44 51°26.909 2°56.481 8.8 323 15.2 102780 60
2009-06-22 11:45 51°26.928 2°56.816 9.4 321 15.2 102790 59
2009-06-22 11:46 51°26.947 2°57.153 8.9 321 15.2 102780 60
2009-06-22 11:47 51°26.963 2°57.489 9.6 322 15.2 102780 61
2009-06-22 11:48 51°26.981 2°57.825 9.9 319 15.3 102770 61
2009-06-22 11:49 51°26.999 2°58.159 9.2 318 15.2 102780 61
2009-06-22 11:50 51°27.033 2°58.492 8.7 319 15.2 102780 61
2009-06-22 11:51 51°27.086 2°58.82 10 324 15.2 102770 62
2009-06-22 11:52 51°27.147 2°59.143 9.3 327 15.2 102790 61
2009-06-22 11:53 51°27.238 2°59.451 10.1 325 15.2 102780 61
2009-06-22 11:54 51°27.331 2°59.753 9.2 323 15.2 102780 61
2009-06-22 11:55 51°27.412 3°0.065 8.5 318 15.1 102780 61
2009-06-22 11:56 51°27.495 3°0.379 9.3 319 15.1 102780 62
2009-06-22 11:57 51°27.575 3°0.697 10.7 319 15.1 102780 61
2009-06-22 11:58 51°27.659 3°1.016 9.9 318 15.1 102780 62
2009-06-22 11:59 51°27.743 3°1.339 10.2 317 15.1 102770 62
2009-06-22 12:00 51°27.822 3°1.667 11 316 15.1 102770 63
2009-06-22 12:01 51°27.903 3°1.994 10.4 321 15.1 102760 64
2009-06-22 12:02 51°27.986 3°2.319 10.2 318 15.1 102760 62
2009-06-22 12:03 51°28.061 3°2.648 9.9 316 15.1 102770 62
2009-06-22 12:04 51°28.132 3°2.937 7.3 20 15 102770 63
2009-06-22 12:05 51°28.18 3°3.118 8.2 20 14.9 102780 63
2009-06-22 12:06 51°28.218 3°3.269 6.9 25 14.8 102780 62
2009-06-22 12:07 51°28.253 3°3.407 6.5 26 14.8 102780 64
2009-06-22 12:08 51°28.282 3°3.495 5.8 317 14.8 102790 63
2009-06-22 12:09 51°28.299 3°3.539 5.1 318 14.9 102790 64
2009-06-22 12:10 51°28.312 3°3.575 4.7 322 15 102790 63
2009-06-22 12:11 51°28.323 3°3.609 5.7 28 15.1 102790 63
2009-06-22 12:12 51°28.333 3°3.641 4.9 243 15.1 102790 63
2009-06-22 12:13 51°28.342 3°3.679 5 21 15.1 102790 63
2009-06-22 12:14 51°28.328 3°3.768 5.8 249 15.1 102790 62
2009-06-22 12:15 51°28.254 3°3.971 7.2 27 15.2 102780 63
2009-06-22 12:16 51°28.149 3°4.237 7.1 30 15.2 102780 63
2009-06-22 12:17 51°28.04 3°4.509 7.2 24 15.1 102780 62
2009-06-22 12:18 51°27.933 3°4.783 7.4 19 15 102780 61
2009-06-22 12:19 51°27.823 3°5.053 8.7 24 15 102790 62
2009-06-22 12:20 51°27.713 3°5.325 7 22 15 102790 61
2009-06-22 12:21 51°27.603 3°5.589 6.4 27 15 102790 62
2009-06-22 12:22 51°27.486 3°5.847 7.5 20 15.1 102780 62
2009-06-22 12:23 51°27.375 3°6.112 6 30 15.1 102780 61
2009-06-22 12:24 51°27.269 3°6.376 5.5 27 15.1 102780 62
2009-06-22 12:25 51°27.16 3°6.646 8 29 15.1 102780 62
2009-06-22 12:26 51°27.044 3°6.901 6 19 15.1 102780 61
2009-06-22 12:27 51°26.928 3°7.153 6.9 27 15 102780 61
2009-06-22 12:28 51°26.817 3°7.414 8 21 15.1 102780 61
2009-06-22 12:29 51°26.705 3°7.674 6.6 21 15.1 102790 62
2009-06-22 12:30 51°26.607 3°7.915 6.5 21 15.1 102790 63
2009-06-22 12:31 51°26.533 3°8.111 7.1 251 15.2 102780 63
2009-06-22 12:32 51°26.498 3°8.235 4.8 259 15.3 102780 62
2009-06-22 12:33 51°26.469 3°8.312 4.4 35 15.3 102790 62
2009-06-22 12:34 51°26.456 3°8.361 4.8 270 15.2 102790 62
2009-06-22 12:35 51°26.454 3°8.403 4.5 261 15.2 102790 62
2009-06-22 12:36 51°26.459 3°8.439 6.1 256 15.2 102790 63
2009-06-22 12:37 51°26.467 3°8.471 8.4 257 15.2 102780 63
2009-06-22 12:38 51°26.474 3°8.504 5.8 249 15.3 102790 62
2009-06-22 12:39 51°26.447 3°8.633 6.2 245 15.5 102780 63
2009-06-22 12:40 51°26.339 3°8.825 6.9 19 15.5 102780 60
2009-06-22 12:41 51°26.225 3°9.075 7.3 23 15.4 102770 60
2009-06-22 12:42 51°26.122 3°9.338 7.1 29 15.4 102780 60
2009-06-22 12:43 51°26.031 3°9.612 9.2 27 15.4 102780 61
2009-06-22 12:44 51°25.948 3°9.888 8.7 19 15.4 102770 61
2009-06-22 12:45 51°25.859 3°10.163 7.5 27 15.3 102780 60
2009-06-22 12:46 51°25.771 3°10.438 6.3 29 15.2 102780 59
2009-06-22 12:47 51°25.682 3°10.709 7 25 15.2 102780 60
2009-06-22 12:48 51°25.581 3°10.97 6.5 23 15.2 102780 59
2009-06-22 12:49 51°25.471 3°11.223 6.7 23 15.3 102780 60
2009-06-22 12:50 51°25.332 3°11.435 4.8 23 15.3 102780 60
2009-06-22 12:51 51°25.176 3°11.619 4.2 242 15.4 102790 61
2009-06-22 12:52 51°25.009 3°11.772 5.5 244 15.5 102790 62
2009-06-22 12:53 51°24.832 3°11.9 4.9 244 15.5 102790 60
2009-06-22 12:54 51°24.655 3°12.028 4.4 25 15.6 102790 59
2009-06-22 12:55 51°24.48 3°12.165 3.9 248 15.7 102790 59
2009-06-22 12:56 51°24.304 3°12.296 3.6 23 15.8 102790 60
2009-06-22 12:57 51°24.126 3°12.421 3.2 249 15.8 102790 59
2009-06-22 12:58 51°23.947 3°12.537 3.8 255 15.9 102790 60
2009-06-22 12:59 51°23.769 3°12.659 4.7 252 16 102790 60
2009-06-22 13:00 51°23.588 3°12.765 3.2 251 16 102790 59
2009-06-22 13:01 51°23.407 3°12.867 4.3 254 16.1 102800 59
2009-06-22 13:02 51°23.231 3°12.963 4.1 25 16.1 102790 59
2009-06-22 13:03 51°23.073 3°13.056 4 258 16.2 102790 59
2009-06-22 13:04 51°22.927 3°13.121 2 263 16.2 102790 58
2009-06-22 13:05 51°22.782 3°13.163 2.5 261 16.2 102790 59
2009-06-22 13:06 51°22.676 3°13.203 3.4 25 16.1 102790 59
2009-06-22 13:07 51°22.625 3°13.234 3.8 22 15.8 102790 59
2009-06-22 13:08 51°22.613 3°13.266 5.8 30 15.5 102790 59
2009-06-22 13:09 51°22.603 3°13.302 5.6 29 15.3 102780 61
2009-06-22 13:10 51°22.596 3°13.339 5.1 267 15.2 102780 60
2009-06-22 13:11 51°22.592 3°13.374 4.9 261 15.1 102780 60
2009-06-22 13:12 51°22.59 3°13.407 5 261 15.3 102790 62
2009-06-22 13:13 51°22.578 3°13.461 3.8 268 15.3 102790 60
2009-06-22 13:14 51°22.523 3°13.479 5 34 15.5 102790 63
2009-06-22 13:15 51°22.518 3°13.332 7.9 1 15.4 102780 61
2009-06-22 13:16 51°22.532 3°13.063 8 357 15.1 102770 61
2009-06-22 13:17 51°22.546 3°12.78 7.2 1 15 102780 62
2009-06-22 13:18 51°22.547 3°12.494 7.1 1 14.9 102780 62
2009-06-22 13:19 51°22.549 3°12.209 6.4 2 14.8 102770 61
2009-06-22 13:20 51°22.538 3°11.926 5.4 1 14.8 102780 64
2009-06-22 13:21 51°22.503 3°11.649 5.4 3 14.8 102780 63
2009-06-22 13:22 51°22.471 3°11.373 5.2 2 14.7 102780 61
2009-06-22 13:23 51°22.441 3°11.096 6.4 1 14.8 102780 62
2009-06-22 13:24 51°22.413 3°10.816 5.4 5 14.8 102780 61
2009-06-22 13:25 51°22.381 3°10.535 5 2 14.8 102780 63
2009-06-22 13:26 51°22.349 3°10.252 5.7 4 14.8 102780 64
2009-06-22 13:27 51°22.319 3°9.969 5.7 359 14.8 102780 62
2009-06-22 13:28 51°22.285 3°9.688 4 4 14.8 102780 61
2009-06-22 13:29 51°22.251 3°9.408 5.8 1 14.8 102780 61
2009-06-22 13:30 51°22.217 3°9.126 5.5 4 14.8 102780 61
2009-06-22 13:31 51°22.18 3°8.844 6.6 4 14.8 102780 63
2009-06-22 13:32 51°22.146 3°8.559 5.3 5 14.8 102780 61
2009-06-22 13:33 51°22.115 3°8.274 6.4 7 14.8 102780 62
2009-06-22 13:34 51°22.084 3°7.989 6.4 8 14.8 102790 63
2009-06-22 13:35 51°22.052 3°7.706 5.5 3 14.8 102790 64
2009-06-22 13:36 51°22.018 3°7.423 6.1 6 14.8 102780 65
2009-06-22 13:37 51°21.986 3°7.139 5.3 3 14.8 102780 64
2009-06-22 13:38 51°21.935 3°6.867 4.9 8 14.8 102790 63
2009-06-22 13:39 51°21.875 3°6.598 5.2 6 14.8 102780 63
2009-06-22 13:40 51°21.817 3°6.326 5 2 14.8 102780 63
2009-06-22 13:41 51°21.759 3°6.056 4.6 6 14.8 102780 63
2009-06-22 13:42 51°21.7 3°5.785 5.5 7 14.8 102780 63
2009-06-22 13:43 51°21.643 3°5.513 5.1 10 14.7 102780 62
2009-06-22 13:44 51°21.587 3°5.239 5.2 11 14.8 102790 64
2009-06-22 13:45 51°21.534 3°4.963 5.6 12 14.8 102790 64
2009-06-22 13:46 51°21.478 3°4.69 4.8 8 14.9 102790 64
2009-06-22 13:47 51°21.421 3°4.417 4.1 14 14.9 102790 65
2009-06-22 13:48 51°21.363 3°4.146 5.6 7 14.9 102790 62
2009-06-22 13:49 51°21.307 3°3.873 5.2 5 14.9 102790 63
2009-06-22 13:50 51°21.249 3°3.602 4.5 6 14.8 102790 61
2009-06-22 13:51 51°21.19 3°3.33 5.2 8 14.9 102780 65
2009-06-22 13:52 51°21.132 3°3.059 5.5 9 14.8 102790 63
2009-06-22 13:53 51°21.077 3°2.784 6.3 7 14.9 102780 65
2009-06-22 13:54 51°21.018 3°2.511 5.7 10 14.8 102780 62
2009-06-22 13:55 51°20.965 3°2.231 4.7 7 14.9 102780 64
2009-06-22 13:56 51°20.91 3°1.952 6.6 7 14.8 102790 66
2009-06-22 13:57 51°20.854 3°1.673 5.6 8 14.8 102780 62
2009-06-22 13:58 51°20.795 3°1.395 5.2 3 14.8 102780 63
2009-06-22 13:59 51°20.738 3°1.114 5.6 9 14.8 102780 63
2009-06-22 14:00 51°20.685 3°0.831 6.8 8 14.8 102780 64
2009-06-22 14:01 51°20.63 3°0.553 5.6 7 14.8 102780 64
2009-06-22 14:02 51°20.573 3°0.277 5.8 9 14.8 102780 63
2009-06-22 14:03 51°20.519 3°0 7 10 14.8 102780 63
2009-06-22 14:04 51°20.461 2°59.724 4.9 9 14.8 102780 63
2009-06-22 14:05 51°20.407 2°59.444 4.8 10 14.9 102780 62
2009-06-22 14:06 51°20.349 2°59.164 4.2 9 14.9 102790 62
2009-06-22 14:07 51°20.288 2°58.885 6.6 8 14.9 102780 64
2009-06-22 14:08 51°20.23 2°58.602 6.4 11 14.9 102780 64
2009-06-22 14:09 51°20.172 2°58.319 4.4 13 14.9 102780 63
2009-06-22 14:10 51°20.115 2°58.036 4.7 8 14.9 102780 64
2009-06-22 14:11 51°20.056 2°57.753 5.9 8 14.9 102770 63
2009-06-22 14:12 51°19.997 2°57.468 5.3 6 14.9 102780 62
2009-06-22 14:13 51°19.942 2°57.178 3.7 10 14.8 102780 62
2009-06-22 14:14 51°19.884 2°56.892 4.1 7 14.9 102780 63
2009-06-22 14:15 51°19.828 2°56.604 5.6 10 14.9 102780 63
2009-06-22 14:16 51°19.769 2°56.316 4.5 6 14.9 102780 61
2009-06-22 14:17 51°19.71 2°56.028 3.9 7 14.9 102780 62
2009-06-22 14:18 51°19.649 2°55.743 5.6 8 14.9 102780 62
2009-06-22 14:19 51°19.587 2°55.46 5.1 6 14.9 102780 63
2009-06-22 14:20 51°19.524 2°55.175 4 3 14.9 102780 63
2009-06-22 14:21 51°19.466 2°54.887 5.3 2 14.9 102780 63
2009-06-22 14:22 51°19.408 2°54.597 4.1 4 14.9 102780 63
2009-06-22 14:23 51°19.352 2°54.306 5.2 7 14.9 102780 63
2009-06-22 14:24 51°19.295 2°54.014 4.4 4 14.9 102780 62
2009-06-22 14:25 51°19.238 2°53.721 5.5 4 14.8 102780 62
2009-06-22 14:26 51°19.179 2°53.431 4.4 3 14.9 102780 60
2009-06-22 14:27 51°19.117 2°53.145 4.9 4 14.9 102780 62
2009-06-22 14:28 51°19.058 2°52.856 4.2 10 14.9 102780 61
2009-06-22 14:29 51°18.99 2°52.572 3.3 10 14.9 102780 62
2009-06-22 14:30 51°18.916 2°52.291 4.5 10 15 102790 64
2009-06-22 14:31 51°18.838 2°52.015 4.5 11 15 102780 64
2009-06-22 14:32 51°18.756 2°51.743 3.6 6 15.1 102790 65
2009-06-22 14:33 51°18.688 2°51.527 3.3 25 15.1 102790 64
2009-06-22 14:34 51°18.646 2°51.384 4.7 33 15.1 102790 65
2009-06-22 14:35 51°18.616 2°51.284 4.4 38 15.1 102790 62
2009-06-22 14:36 51°18.58 2°51.203 2.8 25 15.1 102790 63
2009-06-22 14:37 51°18.539 2°51.104 3.2 36 15.1 102790 64
2009-06-22 14:38 51°18.494 2°51.031 3.6 20 15.1 102790 62
2009-06-22 14:39 51°18.485 2°51.019 4.6 27 15.3 102790 66
2009-06-22 14:40 51°18.483 2°51.016 5.2 26 15.2 102800 62
2009-06-22 14:41 51°18.488 2°51.011 6 27 15.1 102800 62
2009-06-22 14:42 51°18.492 2°51.004 4.7 28 15.1 102800 62
2009-06-22 14:43 51°18.496 2°51 4.9 269 15.1 102790 63
2009-06-22 14:44 51°18.467 2°51.031 6.9 256 15.1 102800 61
2009-06-22 14:45 51°18.383 2°51.175 7.4 27 15.2 102780 61
2009-06-22 14:46 51°18.257 2°51.395 5.6 27 15.2 102780 60
2009-06-22 14:47 51°18.119 2°51.598 7.8 29 15.3 102780 61
2009-06-22 14:48 51°17.963 2°51.76 5.8 28 15.3 102780 61
2009-06-22 14:49 51°17.801 2°51.91 5.3 244 15.4 102780 61
2009-06-22 14:50 51°17.638 2°52.06 5.9 243 15.4 102780 61
2009-06-22 14:51 51°17.475 2°52.214 6.4 26 15.5 102790 62
2009-06-22 14:52 51°17.311 2°52.362 6.2 26 15.6 102780 64
2009-06-22 14:53 51°17.149 2°52.519 6.6 25 15.6 102780 62
2009-06-22 14:54 51°17.009 2°52.719 7 27 15.6 102780 61
2009-06-22 14:55 51°16.898 2°52.963 6.7 19 15.5 102780 60
2009-06-22 14:56 51°16.788 2°53.211 8 26 15.5 102780 61
2009-06-22 14:57 51°16.671 2°53.453 6.4 22 15.6 102770 63
2009-06-22 14:58 51°16.556 2°53.697 9.1 24 15.6 102770 64
2009-06-22 14:59 51°16.454 2°53.909 7.2 19 15.5 102780 63
2009-06-22 15:00 51°16.373 2°54.076 6.4 20 15.5 102780 62
2009-06-22 15:01 51°16.33 2°54.177 6.3 255 15.5 102780 61
2009-06-22 15:02 51°16.297 2°54.239 5.5 261 15.6 102790 62
2009-06-22 15:03 51°16.275 2°54.279 6.7 256 15.7 102780 63
2009-06-22 15:04 51°16.269 2°54.282 7 260 15.6 102780 62
2009-06-22 15:05 51°16.264 2°54.278 6.7 257 15.6 102780 63
2009-06-22 15:06 51°16.259 2°54.272 4 264 15.7 102790 64
2009-06-22 15:07 51°16.253 2°54.264 4.3 264 15.6 102790 63
2009-06-22 15:08 51°16.245 2°54.258 6.2 270 15.5 102790 62
2009-06-22 15:09 51°16.213 2°54.257 4.3 25 15.4 102790 61
2009-06-22 15:10 51°16.104 2°54.22 1.6 260 15.2 102780 61
2009-06-22 15:11 51°15.921 2°54.169 1.1 29 15.4 102780 63
2009-06-22 15:12 51°15.73 2°54.161 2.8 27 15.5 102780 63
2009-06-22 15:13 51°15.537 2°54.159 4.4 254 15.7 102780 62
2009-06-22 15:14 51°15.344 2°54.159 3.3 248 15.9 102780 62
2009-06-22 15:15 51°15.15 2°54.167 4.1 20 15.9 102780 60
2009-06-22 15:16 51°14.964 2°54.212 5.3 248 16.1 102770 62
2009-06-22 15:17 51°14.786 2°54.307 5.8 28 16.1 102770 61
2009-06-22 15:18 51°14.628 2°54.462 6 27 16 102770 60
2009-06-22 15:19 51°14.502 2°54.668 6.8 21 15.9 102770 60
2009-06-22 15:20 51°14.402 2°54.908 7.8 26 15.9 102770 61
2009-06-22 15:21 51°14.304 2°55.151 8.4 26 15.8 102760 62
2009-06-22 15:22 51°14.196 2°55.348 7.6 244 15.8 102770 63
2009-06-22 15:23 51°14.063 2°55.462 5.6 21 15.8 102780 63
2009-06-22 15:24 51°13.935 2°55.551 4.4 256 15.9 102780 61
2009-06-22 15:25 51°13.827 2°55.632 4.6 254 16 102780 60
2009-06-22 15:26 51°13.744 2°55.736 5.5 248 16 102780 61
2009-06-22 15:27 51°13.695 2°55.837 2.2 18 16.1 102780 59
2009-06-22 15:28 51°13.67 2°55.926 3.9 253 16.2 102780 59
2009-06-22 15:29 51°13.663 2°55.955 4 268 16.3 102780 59